Time;durP1;ratioP1;P1;durP2;ratioP2;P2;SDS_P1;SDS_P2;PMS_P1;PMS_P2;Temp;Humidity;BMP_temperature;BMP_pressure;BME280_temperature;BME280_humidity;BME280_pressure;Samples;Min_cycle;Max_cycle;Signal;HPM_P1;HPM_P2
2024/01/05 02:18:51;;;;;;;5.57;4.57;;;-1.10;99.90;;;;;;6101358;23;20213;-83
2024/01/05 02:21:27;;;;;;;5.37;4.80;;;-1.00;99.90;;;;;;6098221;23;20173;-85
2024/01/05 02:24:17;;;;;;;7.20;5.00;;;-0.90;99.90;;;;;;6112944;23;20164;-82
2024/01/05 02:26:54;;;;;;;7.33;5.30;;;-0.80;99.90;;;;;;6103312;23;20169;-85
2024/01/05 02:29:27;;;;;;;5.87;4.70;;;-0.90;99.90;;;;;;6115828;23;20393;-83
2024/01/05 02:32:03;;;;;;;5.90;5.17;;;-0.90;99.90;;;;;;6115302;23;20145;-84
2024/01/05 02:34:41;;;;;;;7.37;5.10;;;-0.90;99.90;;;;;;6100304;23;20260;-86
2024/01/05 02:37:19;;;;;;;5.57;4.43;;;-0.80;99.90;;;;;;6067765;23;20164;31
2024/01/05 02:39:50;;;;;;;7.33;4.70;;;-0.90;98.90;;;;;;6049306;23;20181;-85
2024/01/05 02:42:19;;;;;;;4.70;4.13;;;-0.90;98.60;;;;;;6082327;23;20181;-86
2024/01/05 02:44:54;;;;;;;5.80;4.40;;;-1.00;96.40;;;;;;6083433;23;20613;-85
2024/01/05 02:47:31;;;;;;;3.77;3.37;;;-0.90;97.20;;;;;;6080720;23;20311;-85
2024/01/05 02:50:03;;;;;;;7.67;4.37;;;-1.00;93.10;;;;;;6082448;23;20188;-84
2024/01/05 02:52:41;;;;;;;6.73;3.70;;;-0.90;94.60;;;;;;6083176;23;20598;-86
2024/01/05 02:55:20;;;;;;;5.10;3.93;;;-0.90;93.80;;;;;;6079832;23;20528;-84
2024/01/05 02:58:03;;;;;;;4.60;4.03;;;-0.90;93.40;;;;;;6046307;23;20179;-86
2024/01/05 03:00:47;;;;;;;5.83;3.90;;;-1.00;95.10;;;;;;6080111;23;20314;-87
2024/01/05 03:03:21;;;;;;;6.23;4.00;;;-0.80;93.80;;;;;;6078726;23;20170;-83
2024/01/05 03:05:55;;;;;;;6.10;4.17;;;-0.90;95.10;;;;;;6083070;23;20593;-85
2024/01/05 03:08:35;;;;;;;6.97;4.67;;;-0.70;95.60;;;;;;6080712;23;20231;-86
2024/01/05 03:11:07;;;;;;;7.17;4.20;;;-0.90;94.50;;;;;;6082310;23;20209;-83
2024/01/05 03:13:43;;;;;;;4.13;3.50;;;-0.90;93.60;;;;;;6079468;23;20173;-85
2024/01/05 03:16:11;;;;;;;5.77;3.30;;;-1.00;94.10;;;;;;6082127;23;20172;-86
2024/01/05 03:18:50;;;;;;;6.20;3.50;;;-0.90;94.30;;;;;;6049544;23;20230;-85
2024/01/05 03:21:34;;;;;;;4.33;3.90;;;-1.00;93.20;;;;;;6084080;23;20205;-87
2024/01/05 03:28:04;;;;;;;5.40;3.97;;;-1.30;93.10;;;;;;6085449;23;20223;-82
2024/01/05 03:30:35;;;;;;;3.77;3.37;;;-1.10;94.40;;;;;;6083585;23;20816;-87
2024/01/05 03:36:50;;;;;;;3.90;3.43;;;-1.00;94.40;;;;;;6070472;23;20169;-83
2024/01/05 03:39:20;;;;;;;4.23;3.50;;;-1.10;94.30;;;;;;6077319;23;20187;-85
2024/01/05 03:41:53;;;;;;;4.43;3.17;;;-1.10;94.10;;;;;;6112076;23;20214;-89
2024/01/05 03:44:38;;;;;;;3.37;3.07;;;-0.90;93.10;;;;;;6138350;23;20164;-84
2024/01/05 03:47:07;;;;;;;3.67;3.30;;;-1.00;92.60;;;;;;6133561;23;20178;-86
2024/01/05 03:49:42;;;;;;;5.13;3.17;;;-1.00;92.20;;;;;;6140444;23;20605;-88
2024/01/05 03:52:19;;;;;;;3.30;3.00;;;-1.00;92.30;;;;;;6140626;23;20227;-84
2024/01/05 03:54:56;;;;;;;2.93;2.73;;;-1.10;90.30;;;;;;6106289;23;20203;-86
2024/01/05 03:57:30;;;;;;;4.20;3.00;;;-1.10;90.40;;;;;;6104805;23;20361;-84
2024/01/05 04:00:25;;;;;;;3.37;2.97;;;-1.20;90.10;;;;;;6109974;23;20210;-82
2024/01/05 04:03:19;;;;;;;3.63;2.77;;;-1.10;90.20;;;;;;6132854;23;20439;-81
2024/01/05 04:06:01;;;;;;;2.87;2.40;;;-1.10;90.30;;;;;;6121518;23;20168;-87
2024/01/05 04:08:30;;;;;;;3.03;2.40;;;-1.10;89.00;;;;;;6140722;23;20476;-83
2024/01/05 04:11:02;;;;;;;2.97;2.10;;;-1.20;87.00;;;;;;6143410;23;20225;-85
2024/01/05 04:13:45;;;;;;;2.40;1.93;;;-0.80;87.30;;;;;;6140007;23;20265;-84
2024/01/05 04:16:21;;;;;;;1.90;1.70;;;-0.80;85.40;;;;;;6126218;23;20426;-87
2024/01/05 04:19:02;;;;;;;2.20;1.90;;;-1.10;85.00;;;;;;6144873;23;20160;-83
2024/01/05 04:24:17;;;;;;;2.20;2.00;;;-1.10;86.20;;;;;;6130537;23;20169;-84
2024/01/05 04:26:50;;;;;;;2.20;2.10;;;-1.10;86.40;;;;;;6133560;23;20186;-84
2024/01/05 04:29:41;;;;;;;2.83;2.00;;;-1.10;86.10;;;;;;6141770;23;20382;-86
2024/01/05 04:32:57;;;;;;;2.07;1.70;;;-0.90;86.00;;;;;;6129202;23;20169;-88
2024/01/05 04:36:24;;;;;;;2.17;1.80;;;-1.00;86.60;;;;;;6128915;23;20194;-85
2024/01/05 04:38:54;;;;;;;3.07;2.00;;;-1.20;87.90;;;;;;6122091;23;20191;-86
2024/01/05 04:41:32;;;;;;;1.97;1.87;;;-1.20;87.90;;;;;;6141179;23;20403;-88
2024/01/05 04:44:40;;;;;;;2.63;1.90;;;-1.20;88.50;;;;;;6139332;23;20163;-86
2024/01/05 04:47:09;;;;;;;2.00;1.80;;;-1.10;88.80;;;;;;6144483;23;20633;-85
2024/01/05 04:49:38;;;;;;;2.20;2.00;;;-1.20;90.00;;;;;;6143128;23;20220;-85
2024/01/05 04:52:15;;;;;;;2.17;1.77;;;-1.20;88.90;;;;;;6145485;23;20152;-86
2024/01/05 04:54:46;;;;;;;1.90;1.70;;;-1.00;89.70;;;;;;6144694;23;20164;-86
2024/01/05 04:57:25;;;;;;;3.13;1.90;;;-1.10;90.20;;;;;;6144558;23;20164;-84
2024/01/05 04:59:54;;;;;;;1.73;1.63;;;-1.20;90.80;;;;;;6135196;23;20160;-86
2024/01/05 05:02:24;;;;;;;2.17;1.80;;;-1.20;90.50;;;;;;6143506;23;20202;-84
2024/01/05 05:05:05;;;;;;;3.27;2.47;;;-1.10;90.30;;;;;;6122860;23;20191;-84
2024/01/05 05:08:05;;;;;;;2.70;2.50;;;-1.20;90.60;;;;;;6133171;23;20226;-85
2024/01/05 05:11:15;;;;;;;3.27;2.30;;;-1.20;92.20;;;;;;6133673;23;20229;-85
2024/01/05 05:14:29;;;;;;;2.20;2.00;;;-1.20;91.60;;;;;;6144563;23;20441;-83
2024/01/05 05:17:09;;;;;;;2.13;1.90;;;-1.00;91.30;;;;;;6113722;23;20194;-86
2024/01/05 05:19:42;;;;;;;2.57;2.00;;;-1.00;91.60;;;;;;6108636;23;20200;-86
2024/01/05 05:22:40;;;;;;;4.90;2.00;;;-1.20;91.80;;;;;;6165072;23;20169;-84
2024/01/05 05:25:11;;;;;;;3.20;2.10;;;-1.30;92.00;;;;;;6137722;23;20479;-83
2024/01/05 05:28:09;;;;;;;3.40;2.27;;;-1.10;91.90;;;;;;6152534;23;20632;-84
2024/01/05 05:30:53;;;;;;;2.63;2.20;;;-1.20;92.00;;;;;;6159248;23;21093;-83
2024/01/05 05:33:36;;;;;;;2.33;2.10;;;-1.20;92.10;;;;;;6149868;23;20172;-87
2024/01/05 05:36:10;;;;;;;2.37;2.03;;;-1.20;92.70;;;;;;6146782;23;20190;-85
2024/01/05 05:38:45;;;;;;;2.87;1.90;;;-0.90;92.60;;;;;;6149425;23;20182;-84
2024/01/05 05:41:22;;;;;;;2.87;2.00;;;-1.20;93.90;;;;;;6150597;23;20221;-82
2024/01/05 05:43:52;;;;;;;2.17;1.97;;;-1.10;93.40;;;;;;6150978;23;20189;-87
2024/01/05 05:46:32;;;;;;;2.67;2.03;;;-1.10;93.10;;;;;;6151628;23;20224;-84
2024/01/05 05:49:22;;;;;;;2.27;1.83;;;-0.90;94.20;;;;;;6150325;23;20176;-85
2024/01/05 05:52:06;;;;;;;3.23;2.37;;;-1.10;94.00;;;;;;6134517;23;20191;-86
2024/01/05 05:54:40;;;;;;;2.70;2.10;;;-1.20;93.40;;;;;;6148231;23;20702;-84
2024/01/05 05:57:12;;;;;;;2.60;2.23;;;-1.00;92.30;;;;;;6141053;23;20384;-83
2024/01/05 06:00:11;;;;;;;2.40;2.20;;;-1.00;91.80;;;;;;6152622;23;20196;-84
2024/01/05 06:02:40;;;;;;;2.13;1.97;;;-1.00;92.60;;;;;;6114279;23;20182;-80
2024/01/05 06:05:10;;;;;;;2.43;2.10;;;-0.90;91.80;;;;;;6149269;23;20239;-81
2024/01/05 06:07:38;;;;;;;3.63;2.00;;;-0.80;91.20;;;;;;6136257;23;20167;-82
2024/01/05 06:10:08;;;;;;;3.47;2.17;;;-0.70;90.80;;;;;;6147191;23;20189;-81
2024/01/05 06:12:36;;;;;;;2.20;1.90;;;-0.70;90.00;;;;;;6119718;23;20619;-81
2024/01/05 06:15:08;;;;;;;2.00;1.80;;;-0.70;90.50;;;;;;6141035;23;20207;-82
2024/01/05 06:17:36;;;;;;;4.67;2.17;;;-0.60;90.60;;;;;;6129612;23;20575;-83
2024/01/05 06:20:08;;;;;;;2.93;2.27;;;-0.60;90.00;;;;;;6141596;23;20183;-82
2024/01/05 06:22:38;;;;;;;2.67;2.30;;;-0.70;90.90;;;;;;6135124;23;20171;-80
2024/01/05 06:25:07;;;;;;;3.40;2.60;;;-0.70;90.10;;;;;;6139767;23;20180;-82
2024/01/05 06:27:37;;;;;;;2.83;2.30;;;-0.70;90.40;;;;;;6141008;23;20183;-82
2024/01/05 06:30:09;;;;;;;4.03;2.40;;;-0.70;87.90;;;;;;6143226;23;20302;-80
2024/01/05 06:32:38;;;;;;;2.97;2.50;;;-0.70;90.00;;;;;;6159686;23;20152;-80
2024/01/05 06:35:08;;;;;;;3.07;2.40;;;-0.50;90.90;;;;;;6159629;23;20176;-82
2024/01/05 06:37:37;;;;;;;3.77;2.60;;;-0.60;90.90;;;;;;6157036;23;20199;-82
2024/01/05 06:40:08;;;;;;;4.40;2.50;;;-0.50;90.90;;;;;;6129765;23;20175;-83
2024/01/05 06:42:36;;;;;;;3.73;2.43;;;-0.60;89.30;;;;;;6137106;23;20191;-80
2024/01/05 06:45:07;;;;;;;3.53;2.50;;;-0.70;89.30;;;;;;6149951;23;20195;-83
2024/01/05 06:47:35;;;;;;;2.97;2.37;;;-0.60;89.50;;;;;;6144325;23;20163;-82
2024/01/05 06:50:05;;;;;;;3.33;2.50;;;-0.60;90.10;;;;;;6135906;23;20183;-84
2024/01/05 06:52:34;;;;;;;3.13;2.57;;;-0.60;89.70;;;;;;6132493;23;20165;-83
2024/01/05 06:55:05;;;;;;;2.87;2.40;;;-0.70;88.50;;;;;;6136828;23;20866;-80
2024/01/05 06:57:35;;;;;;;3.77;2.67;;;-0.60;87.10;;;;;;6134158;23;20198;-83
2024/01/05 07:00:04;;;;;;;2.73;2.53;;;-0.60;87.00;;;;;;6131849;23;20180;-80
2024/01/05 07:02:33;;;;;;;2.90;2.60;;;-0.60;88.00;;;;;;6128838;23;20418;-80
2024/01/05 07:05:03;;;;;;;2.93;2.30;;;-0.60;89.20;;;;;;6125150;23;20179;-80
2024/01/05 07:07:31;;;;;;;4.30;2.43;;;-0.60;89.20;;;;;;6136489;23;20299;-83
2024/01/05 07:10:00;;;;;;;3.17;2.50;;;-0.40;88.90;;;;;;6150466;23;20171;-83
2024/01/05 07:12:30;;;;;;;3.20;2.37;;;-0.70;89.20;;;;;;6137940;23;20609;-82
2024/01/05 07:14:59;;;;;;;3.10;2.80;;;-0.70;90.00;;;;;;6135891;23;20253;-85
2024/01/05 07:17:27;;;;;;;2.83;2.57;;;-0.70;91.10;;;;;;6122223;23;20203;-83
2024/01/05 07:19:57;;;;;;;2.97;2.70;;;-0.60;90.60;;;;;;6131746;23;20173;-82
2024/01/05 07:22:26;;;;;;;5.47;3.10;;;-0.60;90.50;;;;;;6115128;23;20739;-85
2024/01/05 07:24:55;;;;;;;2.90;2.50;;;-0.60;89.00;;;;;;6108541;23;20304;-81
2024/01/05 07:27:23;;;;;;;2.80;2.57;;;-0.50;89.70;;;;;;6118196;23;20269;-86
2024/01/05 07:29:55;;;;;;;2.70;2.30;;;-0.50;88.80;;;;;;6120083;23;20182;-81
2024/01/05 07:32:23;;;;;;;2.87;2.57;;;-0.50;87.30;;;;;;6103411;23;20529;-84
2024/01/05 07:34:52;;;;;;;3.10;2.47;;;-0.60;86.20;;;;;;6132788;23;20179;-81
2024/01/05 07:37:21;;;;;;;3.67;2.93;;;-0.60;87.10;;;;;;6148614;23;20223;-82
2024/01/05 07:39:53;;;;;;;2.80;2.60;;;-0.50;87.90;;;;;;6141038;23;20195;-82
2024/01/05 07:42:22;;;;;;;2.97;2.33;;;-0.50;87.70;;;;;;6096606;23;20279;-81
2024/01/05 07:44:54;;;;;;;2.87;2.57;;;-0.50;86.50;;;;;;6115966;23;20199;-82
2024/01/05 07:47:22;;;;;;;3.17;2.40;;;-0.30;84.40;;;;;;6129288;23;20287;-79
2024/01/05 07:49:51;;;;;;;2.63;2.43;;;-0.50;85.10;;;;;;6123524;23;20759;-81
2024/01/05 07:52:20;;;;;;;2.80;2.60;;;-0.50;85.60;;;;;;6137336;23;20168;-82
2024/01/05 07:54:48;;;;;;;2.93;2.47;;;-0.50;84.60;;;;;;6127926;23;20209;-81
2024/01/05 07:57:17;;;;;;;3.60;2.70;;;-0.40;85.00;;;;;;6117765;23;20199;-80
2024/01/05 07:59:46;;;;;;;3.10;2.77;;;-0.40;86.30;;;;;;6132570;23;20187;-80
2024/01/05 08:02:15;;;;;;;4.00;3.13;;;-0.50;87.10;;;;;;6115646;23;20598;-81
2024/01/05 08:04:44;;;;;;;2.67;2.23;;;-0.40;86.60;;;;;;6118488;23;20176;-82
2024/01/05 08:07:13;;;;;;;3.00;2.70;;;-0.50;86.20;;;;;;6107927;23;20204;-83
2024/01/05 08:09:43;;;;;;;2.73;2.47;;;-0.40;87.00;;;;;;6116327;23;20569;-83
2024/01/05 08:12:11;;;;;;;5.17;2.93;;;-0.40;88.30;;;;;;6113372;23;20180;-80
2024/01/05 08:14:44;;;;;;;3.57;2.77;;;-0.40;89.40;;;;;;6117432;23;20176;-82
2024/01/05 08:17:12;;;;;;;3.63;2.60;;;-0.40;89.40;;;;;;6116518;23;20250;-80
2024/01/05 08:19:44;;;;;;;2.50;2.30;;;-0.30;88.00;;;;;;6131247;23;20796;-83
2024/01/05 08:22:13;;;;;;;2.57;2.37;;;-0.30;88.10;;;;;;6142412;23;20258;-87
2024/01/05 08:24:41;;;;;;;3.57;2.70;;;-0.40;89.20;;;;;;6131939;23;20756;-83
2024/01/05 08:27:12;;;;;;;2.83;2.40;;;-0.40;89.40;;;;;;6120648;23;20174;-84
2024/01/05 08:29:42;;;;;;;2.40;2.20;;;-0.40;89.20;;;;;;6143657;23;20226;-84
2024/01/05 08:32:11;;;;;;;2.83;2.50;;;-0.30;89.50;;;;;;6145142;23;20368;-85
2024/01/05 08:34:42;;;;;;;4.67;2.60;;;-0.40;89.00;;;;;;6133604;23;20462;-84
2024/01/05 08:37:10;;;;;;;3.23;2.40;;;-0.50;89.50;;;;;;6135161;23;20872;-87
2024/01/05 08:39:40;;;;;;;2.77;2.30;;;-0.50;87.10;;;;;;6135977;23;20508;-85
2024/01/05 08:42:09;;;;;;;3.07;2.50;;;-0.50;88.10;;;;;;6129944;23;20309;-85
2024/01/05 08:44:39;;;;;;;3.03;2.80;;;-0.30;88.50;;;;;;6131667;23;20176;-82
2024/01/05 08:47:08;;;;;;;3.77;2.90;;;-0.50;88.00;;;;;;6126931;23;20175;-88
2024/01/05 08:49:37;;;;;;;3.43;3.10;;;-0.50;87.90;;;;;;6120827;23;20600;-84
2024/01/05 08:52:08;;;;;;;3.57;2.60;;;-0.50;88.20;;;;;;6123628;23;20224;-87
2024/01/05 08:54:40;;;;;;;3.00;2.70;;;-0.40;88.00;;;;;;6120666;23;20249;-88
2024/01/05 08:57:11;;;;;;;4.47;2.67;;;-0.30;87.90;;;;;;6123425;23;20250;-85
2024/01/05 08:59:40;;;;;;;3.50;3.07;;;-0.30;87.50;;;;;;6112540;23;20274;-83
2024/01/05 09:02:09;;;;;;;3.57;3.27;;;-0.30;87.70;;;;;;6109786;23;20572;-82
2024/01/05 09:04:39;;;;;;;3.50;3.20;;;-0.30;87.80;;;;;;6113203;23;20407;-83
2024/01/05 09:07:09;;;;;;;4.87;3.20;;;-0.40;87.10;;;;;;6115432;23;20628;-85
2024/01/05 09:09:38;;;;;;;2.70;2.50;;;-0.20;86.90;;;;;;6114516;23;20414;-86
2024/01/05 09:12:08;;;;;;;3.80;3.30;;;-0.20;86.60;;;;;;6119960;23;20180;-86
2024/01/05 09:14:38;;;;;;;5.03;3.43;;;-0.20;85.70;;;;;;6113128;23;20168;-83
2024/01/05 09:17:06;;;;;;;4.77;3.50;;;-0.20;86.00;;;;;;6103718;23;20302;-87
2024/01/05 09:19:36;;;;;;;3.50;3.20;;;-0.20;86.80;;;;;;6116130;23;20291;-83
2024/01/05 09:22:07;;;;;;;8.37;5.90;;;-0.20;88.00;;;;;;6110270;23;20599;-86
2024/01/05 09:24:37;;;;;;;6.00;5.10;;;-0.20;88.50;;;;;;6106116;23;20661;-86
2024/01/05 09:27:06;;;;;;;9.23;6.37;;;0.10;90.10;;;;;;6136206;23;20179;-85
2024/01/05 09:29:35;;;;;;;13.07;7.53;;;0.00;91.50;;;;;;6131082;23;20404;-85
2024/01/05 09:32:04;;;;;;;16.47;8.13;;;-0.10;91.60;;;;;;6127404;23;20839;-84
2024/01/05 09:34:33;;;;;;;10.77;6.00;;;-0.20;92.20;;;;;;6112650;23;20472;-85
2024/01/05 09:37:02;;;;;;;7.27;4.37;;;-0.20;92.60;;;;;;6111172;23;20168;-84
2024/01/05 09:39:32;;;;;;;8.00;4.27;;;-0.40;93.20;;;;;;6113538;23;20184;-86
2024/01/05 09:42:02;;;;;;;4.50;3.30;;;-0.20;94.00;;;;;;6113221;23;20698;-85
2024/01/05 09:44:32;;;;;;;3.97;3.10;;;-0.20;93.90;;;;;;6111023;23;20242;-84
2024/01/05 09:47:02;;;;;;;3.93;3.63;;;-0.20;94.30;;;;;;6124384;23;20521;-84
2024/01/05 09:49:35;;;;;;;3.53;3.20;;;-0.10;94.20;;;;;;6115202;23;20164;-84
2024/01/05 09:52:05;;;;;;;4.70;3.50;;;-0.10;93.10;;;;;;6123346;23;20206;-84
2024/01/05 09:54:34;;;;;;;4.33;3.20;;;-0.10;92.60;;;;;;6114140;23;20291;-84
2024/01/05 09:57:06;;;;;;;3.87;2.90;;;0.00;92.50;;;;;;6124472;23;20173;-83
2024/01/05 09:59:36;;;;;;;4.57;3.00;;;0.00;92.00;;;;;;6119448;23;20563;-86
2024/01/05 10:02:17;;;;;;;3.70;3.00;;;0.10;91.20;;;;;;6119680;23;20184;-83
2024/01/05 10:04:46;;;;;;;3.90;3.10;;;0.10;91.10;;;;;;6115653;23;20388;-82
2024/01/05 10:07:15;;;;;;;2.97;2.73;;;0.20;90.60;;;;;;6119599;23;20190;-80
2024/01/05 10:09:55;;;;;;;3.50;2.40;;;0.20;89.20;;;;;;6118998;23;20167;-81
2024/01/05 10:12:25;;;;;;;3.23;2.63;;;0.30;88.30;;;;;;6118959;23;20189;-82
2024/01/05 10:15:04;;;;;;;3.33;2.80;;;0.30;85.70;;;;;;6124476;23;20188;-83
2024/01/05 10:17:35;;;;;;;3.13;2.63;;;0.40;85.00;;;;;;6105786;23;20213;-84
2024/01/05 10:20:16;;;;;;;3.07;2.50;;;0.40;84.40;;;;;;6123726;23;20336;-87
2024/01/05 10:22:46;;;;;;;3.10;2.37;;;0.50;82.30;;;;;;6113152;23;20969;-83
2024/01/05 10:25:17;;;;;;;2.53;2.30;;;0.50;82.10;;;;;;6124394;23;20183;-85
2024/01/05 10:27:49;;;;;;;4.50;2.67;;;0.50;81.70;;;;;;6118666;23;20498;-82
2024/01/05 10:30:27;;;;;;;2.53;2.10;;;0.60;82.40;;;;;;6122670;23;20398;-85
2024/01/05 10:33:16;;;;;;;4.03;2.43;;;0.60;78.20;;;;;;6113079;23;20780;-83
2024/01/05 10:35:45;;;;;;;4.07;2.20;;;0.60;77.90;;;;;;6122264;23;20190;-88
2024/01/05 10:38:17;;;;;;;3.23;2.33;;;0.70;78.40;;;;;;6128690;23;20202;-83
2024/01/05 10:40:46;;;;;;;3.80;2.70;;;0.60;78.40;;;;;;6128147;23;20181;-83
2024/01/05 10:43:18;;;;;;;3.33;2.30;;;0.70;78.80;;;;;;6139917;23;20402;-83
2024/01/05 10:45:48;;;;;;;4.13;2.70;;;0.70;78.90;;;;;;6150392;23;20562;-82
2024/01/05 10:48:17;;;;;;;4.07;2.67;;;0.70;77.80;;;;;;6151709;23;20346;-82
2024/01/05 10:50:48;;;;;;;3.27;2.47;;;0.70;77.80;;;;;;6151383;23;20166;-83
2024/01/05 10:53:18;;;;;;;4.37;2.40;;;0.70;77.90;;;;;;6147667;23;20460;-83
2024/01/05 10:55:47;;;;;;;2.27;2.07;;;0.70;78.70;;;;;;6151167;23;20261;-82
2024/01/05 10:58:17;;;;;;;2.60;2.40;;;0.70;79.10;;;;;;6144178;23;20240;-82
2024/01/05 11:00:48;;;;;;;2.90;2.40;;;0.70;78.30;;;;;;6154610;23;20619;-82
2024/01/05 11:03:20;;;;;;;3.67;2.30;;;0.70;78.60;;;;;;6111704;23;20583;-86
2024/01/05 11:05:49;;;;;;;3.07;2.37;;;1.00;78.40;;;;;;6132922;23;20245;-82
2024/01/05 11:08:33;;;;;;;3.83;2.47;;;0.70;77.90;;;;;;6118313;23;20353;-83
2024/01/05 11:11:11;;;;;;;3.43;2.43;;;0.80;79.20;;;;;;6140869;23;20146;-85
2024/01/05 11:14:16;;;;;;;4.17;2.63;;;0.90;80.50;;;;;;6147755;23;20155;-81
2024/01/05 11:17:19;;;;;;;2.70;2.40;;;1.00;79.00;;;;;;6139423;23;20174;-83
2024/01/05 11:20:00;;;;;;;4.00;2.53;;;0.90;77.40;;;;;;6149012;23;20197;-83
2024/01/05 11:22:34;;;;;;;4.70;2.47;;;0.90;78.50;;;;;;6147457;23;20209;-84
2024/01/05 11:25:04;;;;;;;2.73;2.30;;;0.80;76.70;;;;;;6138413;23;20220;-84
2024/01/05 11:27:35;;;;;;;2.67;2.20;;;0.80;77.20;;;;;;6123770;23;20180;-83
2024/01/05 11:30:08;;;;;;;3.60;2.20;;;0.80;76.70;;;;;;6123629;23;20176;-81
2024/01/05 11:32:42;;;;;;;2.17;1.97;;;0.70;76.20;;;;;;6118717;23;20166;-80
2024/01/05 11:35:42;;;;;;;2.40;2.20;;;0.80;76.10;;;;;;6118673;23;20181;-81
2024/01/05 11:38:28;;;;;;;2.97;2.07;;;0.80;76.60;;;;;;6107034;23;20536;-85
2024/01/05 11:40:57;;;;;;;3.93;2.37;;;0.80;76.30;;;;;;6111851;23;20167;-81
2024/01/05 11:43:35;;;;;;;3.90;2.43;;;0.80;75.10;;;;;;6115183;23;20239;-85
2024/01/05 11:46:04;;;;;;;3.63;2.10;;;0.80;76.20;;;;;;6112132;23;20162;-83
2024/01/05 11:48:52;;;;;;;2.87;2.23;;;0.90;78.00;;;;;;6118151;23;20182;-82
2024/01/05 11:51:21;;;;;;;2.27;2.10;;;0.90;76.70;;;;;;6115611;23;20425;-85
2024/01/05 11:53:50;;;;;;;2.63;1.90;;;1.00;73.80;;;;;;6121668;23;20232;-83
2024/01/05 11:56:21;;;;;;;2.30;1.83;;;1.00;73.10;;;;;;6123010;23;20178;-85
2024/01/05 11:58:50;;;;;;;2.43;1.90;;;1.10;72.70;;;;;;6120133;23;20198;-82
2024/01/05 12:01:19;;;;;;;2.10;1.80;;;1.30;73.40;;;;;;6120746;23;21138;-83
2024/01/05 12:03:55;;;;;;;2.53;2.00;;;1.10;73.70;;;;;;6114508;23;20247;-81
2024/01/05 12:06:23;;;;;;;2.77;2.23;;;1.00;73.40;;;;;;6103219;23;20520;-82
2024/01/05 12:08:53;;;;;;;8.20;2.10;;;1.10;74.50;;;;;;6115965;23;20169;-81
2024/01/05 12:11:21;;;;;;;2.20;1.70;;;1.00;74.30;;;;;;6114767;23;20992;-88
2024/01/05 12:13:51;;;;;;;2.03;1.83;;;1.10;72.30;;;;;;6116971;23;20753;-86
2024/01/05 12:16:24;;;;;;;2.07;1.80;;;1.00;71.70;;;;;;6120578;23;20892;-83
2024/01/05 12:18:55;;;;;;;2.00;1.80;;;0.90;68.60;;;;;;6082061;23;20629;-86
2024/01/05 12:21:23;;;;;;;2.23;1.73;;;0.80;70.80;;;;;;6136841;23;20179;-83
2024/01/05 12:24:01;;;;;;;3.33;1.70;;;0.70;66.40;;;;;;6133169;23;20174;-82
2024/01/05 12:26:31;;;;;;;2.00;1.90;;;0.50;67.10;;;;;;6130914;23;20161;-84
2024/01/05 12:29:00;;;;;;;2.23;2.00;;;0.40;70.80;;;;;;6130525;23;20174;-81
2024/01/05 12:31:29;;;;;;;1.93;1.70;;;0.20;68.10;;;;;;6125257;23;20174;-81
2024/01/05 12:34:03;;;;;;;2.07;1.80;;;0.10;65.60;;;;;;6120100;23;20605;-84
2024/01/05 12:36:32;;;;;;;3.10;1.90;;;0.10;69.10;;;;;;6127311;23;20176;-80
2024/01/05 12:39:10;;;;;;;2.70;1.97;;;0.00;66.80;;;;;;6127236;23;20190;-85
2024/01/05 12:41:42;;;;;;;2.33;1.73;;;-0.10;69.50;;;;;;6120407;23;20242;-82
2024/01/05 12:44:15;;;;;;;2.23;1.90;;;-0.10;71.30;;;;;;6126295;23;20240;-82
2024/01/05 12:46:46;;;;;;;2.93;1.87;;;-0.30;71.20;;;;;;6133693;23;20235;-84
2024/01/05 12:49:27;;;;;;;2.47;2.17;;;-0.30;71.60;;;;;;6140312;23;20176;-83
2024/01/05 12:51:56;;;;;;;1.93;1.83;;;-0.40;73.60;;;;;;6125778;23;20156;-81
2024/01/05 12:54:25;;;;;;;1.90;1.70;;;-0.50;75.50;;;;;;6127387;23;20172;-83
2024/01/05 12:56:54;;;;;;;3.20;2.13;;;-0.50;76.10;;;;;;6131615;23;20163;-82
2024/01/05 12:59:24;;;;;;;5.30;2.00;;;-0.50;76.90;;;;;;6128298;23;20249;-87
2024/01/05 13:02:00;;;;;;;3.07;1.80;;;-0.50;77.00;;;;;;6129895;23;20199;-85
2024/01/05 13:04:33;;;;;;;2.20;1.80;;;-0.40;75.10;;;;;;6123823;23;20218;-83
2024/01/05 13:07:11;;;;;;;2.20;2.00;;;-0.30;74.60;;;;;;6131391;23;20854;-80
2024/01/05 13:09:41;;;;;;;2.67;1.70;;;-0.30;76.60;;;;;;6126837;23;20163;-86
2024/01/05 13:12:10;;;;;;;3.87;2.10;;;-0.30;75.90;;;;;;6126942;23;20218;-82
2024/01/05 13:14:41;;;;;;;2.07;1.90;;;-0.40;75.90;;;;;;6120866;23;20179;-85
2024/01/05 13:17:10;;;;;;;2.27;1.90;;;-0.30;76.80;;;;;;6114725;23;20210;-82
2024/01/05 13:19:41;;;;;;;3.13;1.80;;;-0.30;77.60;;;;;;6130557;23;20394;-86
2024/01/05 13:22:11;;;;;;;2.97;2.10;;;-0.30;77.10;;;;;;6122764;23;20171;-81
2024/01/05 13:24:41;;;;;;;3.00;1.87;;;-0.20;77.10;;;;;;6116150;23;20209;-82
2024/01/05 13:27:14;;;;;;;4.87;2.20;;;-0.10;75.80;;;;;;6117371;23;20456;-84
2024/01/05 13:29:46;;;;;;;2.73;2.07;;;-0.10;76.60;;;;;;6126738;23;20362;-83
2024/01/05 13:32:15;;;;;;;2.50;2.10;;;-0.10;76.40;;;;;;6123072;23;20183;-83
2024/01/05 13:34:45;;;;;;;5.73;2.27;;;0.00;75.70;;;;;;6124026;23;20675;-84
2024/01/05 13:37:14;;;;;;;2.83;2.20;;;0.00;75.70;;;;;;6128293;23;20279;-82
2024/01/05 13:39:43;;;;;;;2.73;2.03;;;0.00;73.80;;;;;;6131252;23;20215;-83
2024/01/05 13:42:12;;;;;;;4.20;2.00;;;0.00;73.20;;;;;;6132282;23;20360;-82
2024/01/05 13:44:41;;;;;;;3.03;2.00;;;0.20;76.00;;;;;;6122822;23;20167;-83
2024/01/05 13:47:10;;;;;;;2.67;2.00;;;0.00;76.50;;;;;;6132061;23;20172;-84
2024/01/05 13:49:39;;;;;;;6.73;2.17;;;0.00;76.30;;;;;;6148244;23;20190;-83
2024/01/05 13:52:09;;;;;;;3.27;2.40;;;-0.10;76.30;;;;;;6149799;23;20187;-84
2024/01/05 13:54:38;;;;;;;4.13;2.27;;;-0.10;76.30;;;;;;6130545;23;20221;-85
2024/01/05 13:57:07;;;;;;;2.90;2.60;;;0.00;75.80;;;;;;6130952;23;20168;-85
2024/01/05 13:59:35;;;;;;;2.87;2.10;;;-0.10;76.00;;;;;;6129215;23;20166;-83
2024/01/05 14:02:05;;;;;;;3.80;2.47;;;-0.10;74.60;;;;;;6138282;23;20176;-82
2024/01/05 14:04:34;;;;;;;2.80;1.90;;;0.00;74.90;;;;;;6133941;23;20165;-81
2024/01/05 14:07:02;;;;;;;2.30;2.07;;;0.00;74.90;;;;;;6097361;23;20180;-85
2024/01/05 14:09:35;;;;;;;2.87;2.30;;;0.00;74.90;;;;;;6150349;23;20754;-83
2024/01/05 14:12:05;;;;;;;3.90;2.53;;;0.00;75.10;;;;;;6116999;23;20175;-83
2024/01/05 14:14:35;;;;;;;2.03;1.93;;;0.00;74.90;;;;;;6131283;23;20321;-83
2024/01/05 14:17:08;;;;;;;3.00;2.20;;;0.00;74.80;;;;;;6102102;23;20298;-84
2024/01/05 14:19:47;;;;;;;3.50;2.50;;;0.00;75.30;;;;;;6136480;23;20639;-85
2024/01/05 14:22:19;;;;;;;5.03;2.50;;;0.00;75.40;;;;;;6140897;23;20186;-83
2024/01/05 14:24:49;;;;;;;3.23;2.77;;;0.00;75.60;;;;;;6148596;23;20484;-83
2024/01/05 14:27:19;;;;;;;2.57;2.33;;;0.10;74.90;;;;;;6151837;23;20639;-82
2024/01/05 14:29:49;;;;;;;3.87;2.23;;;0.00;73.90;;;;;;6154167;23;20185;-88
2024/01/05 14:32:17;;;;;;;4.13;2.43;;;0.00;74.40;;;;;;6141325;23;20401;-83
2024/01/05 14:34:46;;;;;;;3.17;2.53;;;0.00;73.30;;;;;;6139223;23;20167;-82
2024/01/05 14:37:14;;;;;;;2.10;1.90;;;0.10;74.40;;;;;;6128761;23;20255;-84
2024/01/05 14:39:43;;;;;;;3.73;2.40;;;0.10;74.10;;;;;;6127455;23;20683;-84
2024/01/05 14:42:13;;;;;;;3.30;2.20;;;0.10;71.30;;;;;;6119448;23;20397;-85
2024/01/05 14:44:43;;;;;;;5.63;2.90;;;0.10;71.70;;;;;;6128449;23;20675;-84
2024/01/05 14:47:11;;;;;;;2.77;2.00;;;0.10;69.80;;;;;;6133776;23;20187;-85
2024/01/05 14:49:41;;;;;;;3.40;2.00;;;0.10;72.80;;;;;;6133271;23;20738;-87
2024/01/05 14:52:10;;;;;;;2.43;2.20;;;0.10;75.50;;;;;;6133563;23;20724;-83
2024/01/05 14:54:38;;;;;;;2.93;2.40;;;0.10;75.40;;;;;;6129577;23;20607;-83
2024/01/05 14:57:07;;;;;;;3.10;1.83;;;0.10;75.50;;;;;;6134303;23;20177;-84
2024/01/05 14:59:37;;;;;;;6.90;2.37;;;0.10;75.20;;;;;;6133612;23;20174;-85
2024/01/05 15:02:06;;;;;;;3.50;2.00;;;0.10;73.30;;;;;;6134512;23;20948;-86
2024/01/05 15:04:35;;;;;;;2.57;1.83;;;0.10;72.60;;;;;;6137879;23;20231;-86
2024/01/05 15:07:04;;;;;;;4.33;2.00;;;0.00;73.40;;;;;;6146084;23;20236;-83
2024/01/05 15:09:36;;;;;;;3.57;2.80;;;0.00;75.10;;;;;;6133367;23;20168;-85
2024/01/05 15:12:06;;;;;;;3.93;2.30;;;-0.10;75.20;;;;;;6105155;23;20176;-82
2024/01/05 15:14:35;;;;;;;2.80;2.20;;;0.00;76.40;;;;;;6139569;23;20188;-85
2024/01/05 15:17:05;;;;;;;4.73;2.40;;;0.10;76.40;;;;;;6168252;23;20168;-85
2024/01/05 15:19:36;;;;;;;2.87;2.23;;;0.00;77.30;;;;;;6159835;23;20168;-85
2024/01/05 15:22:06;;;;;;;3.10;2.47;;;0.10;75.20;;;;;;6145351;23;20204;-83
2024/01/05 15:24:37;;;;;;;3.07;2.50;;;0.10;73.90;;;;;;6146119;23;20204;-86
2024/01/05 15:27:06;;;;;;;9.80;3.80;;;0.10;75.30;;;;;;6138280;23;20192;-84
2024/01/05 15:29:40;;;;;;;3.80;3.20;;;0.00;78.90;;;;;;6142337;23;20176;-83
2024/01/05 15:32:10;;;;;;;3.83;3.10;;;0.00;81.10;;;;;;6105721;23;20665;-84
2024/01/05 15:34:39;;;;;;;4.90;3.80;;;0.00;81.10;;;;;;6140680;23;20637;-86
2024/01/05 15:37:08;;;;;;;7.70;3.30;;;0.10;82.10;;;;;;6143347;23;20177;-86
2024/01/05 15:39:39;;;;;;;6.43;3.80;;;0.00;81.80;;;;;;6103409;23;20258;-85
2024/01/05 15:42:07;;;;;;;5.27;3.67;;;0.00;83.00;;;;;;6139053;23;20203;-85
2024/01/05 15:44:37;;;;;;;4.93;4.00;;;-0.10;83.20;;;;;;6139193;23;20168;-86
2024/01/05 15:47:05;;;;;;;6.23;4.50;;;-0.10;83.40;;;;;;6149893;23;20177;-83
2024/01/05 15:49:36;;;;;;;6.87;4.17;;;-0.10;82.30;;;;;;6161991;23;20163;-83